Time;durP1;ratioP1;P1;durP2;ratioP2;P2;SDS_P1;SDS_P2;PMS_P1;PMS_P2;Temp;Humidity;BMP_temperature;BMP_pressure;BME280_temperature;BME280_humidity;BME280_pressure;Samples;Min_cycle;Max_cycle;Signal;HPM_P1;HPM_P2
2023/12/03 00:02:05;;;;;;;21.60;7.95;;;4.20;98.30;;;;;;4984031;28;20027;-50
2023/12/03 00:04:31;;;;;;;16.75;8.00;;;4.20;98.30;;;;;;4984163;28;20035;-49
2023/12/03 00:06:57;;;;;;;14.77;7.65;;;4.20;98.30;;;;;;4984319;28;20039;-50
2023/12/03 00:09:22;;;;;;;16.48;7.78;;;4.10;98.20;;;;;;4984289;28;20114;-50
2023/12/03 00:11:48;;;;;;;17.08;8.07;;;4.10;98.20;;;;;;4969526;28;20027;-50
2023/12/03 00:14:13;;;;;;;15.23;7.78;;;4.10;98.10;;;;;;4984440;28;20391;-49
2023/12/03 00:16:39;;;;;;;16.77;8.40;;;4.10;98.10;;;;;;4984417;28;20035;-49
2023/12/03 00:19:05;;;;;;;13.95;7.47;;;4.10;98.10;;;;;;4969351;28;20058;-49
2023/12/03 00:21:30;;;;;;;18.38;8.45;;;4.10;98.10;;;;;;4984190;28;20038;-50
2023/12/03 00:23:56;;;;;;;16.85;8.38;;;4.10;98.10;;;;;;4983949;28;20031;-49
2023/12/03 00:26:21;;;;;;;14.88;7.45;;;4.10;98.00;;;;;;4984074;28;20090;-49
2023/12/03 00:28:47;;;;;;;13.85;7.30;;;4.10;97.90;;;;;;4983972;28;20082;-50
2023/12/03 00:31:12;;;;;;;13.88;7.72;;;4.10;97.90;;;;;;4969073;28;20028;-50
2023/12/03 00:33:38;;;;;;;15.90;7.47;;;4.10;97.90;;;;;;4983919;28;20035;-49
2023/12/03 00:36:04;;;;;;;13.93;7.88;;;4.10;97.90;;;;;;4968979;28;20055;-49
2023/12/03 00:38:29;;;;;;;15.48;7.70;;;4.10;98.00;;;;;;4968643;28;20050;-50
2023/12/03 00:40:55;;;;;;;13.98;7.55;;;4.00;97.80;;;;;;4967496;29;20049;-50
2023/12/03 00:43:21;;;;;;;14.82;7.68;;;4.10;97.90;;;;;;4967265;29;20027;-49
2023/12/03 00:45:47;;;;;;;16.42;7.57;;;4.00;98.00;;;;;;4983572;28;20036;-50
2023/12/03 00:48:12;;;;;;;13.60;7.90;;;4.00;98.00;;;;;;4967290;28;20023;-50
2023/12/03 00:50:38;;;;;;;17.95;8.02;;;4.00;98.00;;;;;;4983419;28;20031;-49
2023/12/03 00:53:03;;;;;;;16.15;7.85;;;4.00;97.90;;;;;;4983692;28;20050;-49
2023/12/03 00:55:29;;;;;;;13.77;7.30;;;4.00;98.00;;;;;;4983414;28;20028;-50
2023/12/03 00:57:54;;;;;;;16.55;7.53;;;4.00;98.00;;;;;;4968661;28;20039;-49
2023/12/03 01:00:20;;;;;;;13.27;7.38;;;4.00;98.00;;;;;;4983275;28;20487;-50
2023/12/03 01:02:46;;;;;;;14.73;7.03;;;4.00;97.90;;;;;;4983258;28;20058;-49
2023/12/03 01:05:11;;;;;;;16.65;8.10;;;4.00;97.90;;;;;;4968552;28;20030;-50
2023/12/03 01:07:37;;;;;;;14.38;7.60;;;4.00;97.80;;;;;;4968281;28;20058;-50
2023/12/03 01:10:03;;;;;;;12.05;7.70;;;4.00;97.80;;;;;;4967624;29;20110;-50
2023/12/03 01:12:28;;;;;;;13.07;7.25;;;4.00;97.90;;;;;;4983674;28;20090;-49
2023/12/03 01:14:54;;;;;;;13.07;7.88;;;4.00;97.90;;;;;;4967780;28;20034;-49
2023/12/03 01:17:19;;;;;;;11.18;7.45;;;4.00;97.80;;;;;;4966922;29;20043;-51
2023/12/03 01:19:45;;;;;;;10.90;7.03;;;4.00;97.90;;;;;;4983154;28;20031;-50
2023/12/03 01:22:11;;;;;;;14.10;7.88;;;4.00;97.90;;;;;;4983086;28;20370;-50
2023/12/03 01:24:36;;;;;;;13.50;7.55;;;4.00;97.90;;;;;;4982981;28;20027;-49
2023/12/03 01:27:02;;;;;;;12.68;7.95;;;4.00;97.90;;;;;;4968093;28;20027;-50
2023/12/03 01:29:28;;;;;;;15.90;7.25;;;4.00;97.90;;;;;;4982875;28;20023;-49
2023/12/03 01:31:54;;;;;;;12.93;7.80;;;3.90;97.90;;;;;;4982969;28;20059;-50
2023/12/03 01:34:19;;;;;;;12.73;7.38;;;3.90;97.90;;;;;;4966777;28;20467;-49
2023/12/03 01:36:45;;;;;;;10.15;7.07;;;4.00;97.80;;;;;;4982821;28;20035;-50
2023/12/03 01:39:12;;;;;;;10.18;7.18;;;3.90;97.70;;;;;;4967934;28;20047;-50
2023/12/03 01:41:38;;;;;;;13.52;8.05;;;3.90;97.70;;;;;;4982632;28;20036;-50
2023/12/03 01:44:03;;;;;;;13.07;7.65;;;3.90;97.70;;;;;;4982525;28;20037;-49
2023/12/03 01:46:29;;;;;;;11.93;8.15;;;3.90;97.70;;;;;;4982768;28;20066;-50
2023/12/03 01:48:55;;;;;;;12.50;7.90;;;3.90;97.70;;;;;;4982696;28;20023;-50
2023/12/03 01:51:20;;;;;;;13.18;7.55;;;3.90;97.70;;;;;;4982570;28;20028;-50
2023/12/03 01:53:46;;;;;;;12.93;6.95;;;3.90;97.80;;;;;;4982563;28;20083;-49
2023/12/03 01:56:12;;;;;;;8.68;6.75;;;3.90;97.80;;;;;;4983017;28;20042;-50
2023/12/03 01:58:38;;;;;;;11.80;8.35;;;3.90;97.80;;;;;;4982836;28;20096;-50
2023/12/03 02:01:05;;;;;;;14.13;7.18;;;3.90;97.70;;;;;;4982942;28;20035;-50
2023/12/03 02:03:31;;;;;;;12.63;7.70;;;3.90;97.70;;;;;;4982455;28;20035;-50
2023/12/03 02:06:09;;;;;;;12.48;8.35;;;3.90;97.70;;;;;;4982627;28;20472;-50
2023/12/03 02:08:35;;;;;;;10.93;7.40;;;3.90;97.60;;;;;;4982196;28;20027;-49
2023/12/03 02:11:05;;;;;;;11.43;7.88;;;3.90;97.60;;;;;;4982479;28;20027;-50
2023/12/03 02:13:32;;;;;;;13.00;7.25;;;3.80;97.60;;;;;;4982598;28;20042;-50
2023/12/03 02:15:58;;;;;;;11.02;7.18;;;3.90;97.70;;;;;;4967724;28;20051;-50
2023/12/03 02:18:24;;;;;;;9.63;7.25;;;3.90;97.70;;;;;;4982547;28;20024;-50
2023/12/03 02:20:50;;;;;;;13.52;7.55;;;3.90;97.70;;;;;;4967835;28;20112;-50
2023/12/03 02:23:15;;;;;;;11.23;7.38;;;3.90;97.70;;;;;;4967347;28;20027;-50
2023/12/03 02:25:41;;;;;;;9.93;7.32;;;3.80;97.60;;;;;;4984691;28;20027;-49
2023/12/03 02:28:07;;;;;;;11.35;7.35;;;3.90;97.60;;;;;;4986398;28;20024;-50
2023/12/03 02:30:33;;;;;;;9.95;7.40;;;3.80;97.50;;;;;;4970277;29;20054;-50
2023/12/03 02:32:58;;;;;;;11.23;7.70;;;3.80;97.50;;;;;;4986148;28;20027;-50
2023/12/03 02:35:24;;;;;;;9.23;7.63;;;3.90;97.60;;;;;;4970892;28;20034;-50
2023/12/03 02:37:49;;;;;;;10.93;7.03;;;3.80;97.60;;;;;;4985607;28;20035;-50
2023/12/03 02:40:15;;;;;;;11.23;7.80;;;3.80;97.60;;;;;;4969966;29;20063;-50
2023/12/03 02:42:41;;;;;;;11.52;7.22;;;3.80;97.60;;;;;;4986016;28;20047;-50
2023/12/03 02:45:08;;;;;;;11.00;7.50;;;3.80;97.50;;;;;;4985758;28;20043;-50
2023/12/03 02:47:34;;;;;;;9.90;6.68;;;3.80;97.50;;;;;;4985698;28;20091;-50
2023/12/03 02:49:59;;;;;;;10.52;7.18;;;3.80;97.50;;;;;;4970943;28;20051;-50
2023/12/03 02:52:25;;;;;;;10.23;6.78;;;3.80;97.50;;;;;;4985753;28;20118;-50
2023/12/03 02:54:51;;;;;;;9.95;6.82;;;3.80;97.50;;;;;;4985771;28;20454;-50
2023/12/03 02:57:16;;;;;;;10.25;6.80;;;3.80;97.50;;;;;;4985623;28;20492;-50
2023/12/03 02:59:42;;;;;;;11.02;7.53;;;3.80;97.40;;;;;;4985559;28;20042;-50
2023/12/03 03:02:07;;;;;;;8.55;7.00;;;3.80;97.40;;;;;;4986169;28;20035;-49
2023/12/03 03:04:33;;;;;;;13.88;7.53;;;3.80;97.40;;;;;;4972606;28;20031;-50
2023/12/03 03:06:58;;;;;;;11.68;7.80;;;3.70;97.30;;;;;;4970602;29;20094;-49
2023/12/03 03:09:24;;;;;;;9.18;7.00;;;3.80;97.30;;;;;;4985426;28;20031;-49
2023/12/03 03:11:50;;;;;;;12.23;6.93;;;3.70;97.30;;;;;;4970336;28;20521;-49
2023/12/03 03:14:16;;;;;;;10.50;7.70;;;3.70;97.30;;;;;;4985470;28;20043;-50
2023/12/03 03:16:41;;;;;;;11.20;7.70;;;3.70;97.20;;;;;;4985338;28;20035;-50
2023/12/03 03:19:07;;;;;;;8.90;7.03;;;3.70;97.20;;;;;;4985372;28;20043;-50
2023/12/03 03:21:38;;;;;;;9.73;6.90;;;3.70;97.20;;;;;;4970306;28;20058;-50
2023/12/03 03:24:04;;;;;;;9.98;7.10;;;3.70;97.20;;;;;;4984923;28;20039;-50
2023/12/03 03:26:29;;;;;;;10.73;7.15;;;3.70;97.10;;;;;;4985045;28;20062;-49
2023/12/03 03:28:55;;;;;;;11.18;7.35;;;3.70;97.20;;;;;;4985024;28;20031;-50
2023/12/03 03:31:20;;;;;;;11.43;8.10;;;3.70;97.20;;;;;;4970166;28;20031;-50
2023/12/03 03:33:46;;;;;;;9.55;7.28;;;3.70;97.10;;;;;;4984756;28;20035;-50
2023/12/03 03:36:15;;;;;;;8.52;6.78;;;3.70;97.10;;;;;;4968924;28;20047;-50
2023/12/03 03:38:42;;;;;;;11.95;7.13;;;3.70;97.10;;;;;;4984754;28;20046;-50
2023/12/03 03:41:08;;;;;;;9.05;6.53;;;3.70;97.00;;;;;;4970042;28;20035;-49
2023/12/03 03:43:34;;;;;;;8.35;6.82;;;3.70;97.00;;;;;;4984690;28;20035;-50
2023/12/03 03:46:00;;;;;;;11.65;7.35;;;3.70;97.00;;;;;;4969749;28;20034;-50
2023/12/03 03:48:25;;;;;;;11.02;6.95;;;3.70;97.00;;;;;;4968657;29;20051;-49
2023/12/03 03:50:51;;;;;;;8.15;6.40;;;3.70;97.00;;;;;;4984878;28;20032;-50
2023/12/03 03:53:16;;;;;;;8.05;6.35;;;3.70;97.00;;;;;;4970237;28;20028;-50
2023/12/03 03:55:42;;;;;;;9.23;6.60;;;3.60;96.90;;;;;;4984495;28;20035;-50
2023/12/03 03:58:07;;;;;;;8.88;6.82;;;3.60;96.90;;;;;;4969946;28;20032;-49
2023/12/03 04:00:33;;;;;;;7.70;6.28;;;3.60;96.80;;;;;;4968760;29;20038;-50
2023/12/03 04:02:59;;;;;;;9.57;7.07;;;3.60;96.90;;;;;;4984421;28;20059;-50
2023/12/03 04:05:24;;;;;;;11.00;7.25;;;3.60;96.80;;;;;;4969491;28;20086;-50
2023/12/03 04:07:50;;;;;;;9.00;7.00;;;3.60;96.80;;;;;;4969484;28;20087;-50
2023/12/03 04:10:15;;;;;;;8.13;6.63;;;3.60;96.70;;;;;;4969586;29;20035;-50
2023/12/03 04:12:41;;;;;;;7.72;6.47;;;3.60;96.70;;;;;;4969339;29;20043;-50
2023/12/03 04:15:08;;;;;;;9.05;6.82;;;3.60;96.70;;;;;;4984294;28;20078;-50
2023/12/03 04:17:33;;;;;;;8.98;6.22;;;3.50;96.60;;;;;;4984082;28;20037;-50
2023/12/03 04:19:59;;;;;;;9.68;5.88;;;3.50;96.60;;;;;;4969364;28;20051;-50
2023/12/03 04:22:24;;;;;;;8.90;6.72;;;3.60;96.60;;;;;;4984287;28;20098;-50
2023/12/03 04:24:53;;;;;;;8.90;6.65;;;3.50;96.50;;;;;;4969136;28;20041;-50
2023/12/03 04:27:18;;;;;;;12.07;6.47;;;3.50;96.50;;;;;;4983659;28;20028;-50
2023/12/03 04:29:44;;;;;;;8.75;6.30;;;3.50;96.40;;;;;;4967739;29;20063;-50
2023/12/03 04:32:09;;;;;;;11.18;6.68;;;3.50;96.40;;;;;;4983942;28;20458;-50
2023/12/03 04:34:35;;;;;;;7.60;6.28;;;3.50;96.40;;;;;;4983878;28;20023;-50
2023/12/03 04:37:00;;;;;;;10.60;6.75;;;3.50;96.40;;;;;;4968719;28;20500;-50
2023/12/03 04:39:26;;;;;;;10.80;6.38;;;3.50;96.40;;;;;;4969042;29;20043;-50
2023/12/03 04:41:52;;;;;;;9.50;6.55;;;3.50;96.30;;;;;;4983824;28;20033;-50
2023/12/03 04:44:17;;;;;;;10.07;6.38;;;3.40;96.30;;;;;;4968805;28;20086;-50
2023/12/03 04:46:43;;;;;;;9.15;6.75;;;3.50;96.30;;;;;;4967430;29;20108;-50
2023/12/03 04:49:09;;;;;;;9.05;6.70;;;3.40;96.20;;;;;;4967459;28;20035;-50
2023/12/03 04:51:34;;;;;;;10.52;6.13;;;3.40;96.20;;;;;;4984073;28;20023;-49
2023/12/03 04:54:00;;;;;;;7.72;6.45;;;3.40;96.20;;;;;;4983840;28;20423;-50
2023/12/03 04:56:25;;;;;;;6.85;5.90;;;3.40;96.20;;;;;;4968361;28;20039;-50
2023/12/03 04:58:51;;;;;;;7.93;5.90;;;3.40;96.10;;;;;;4968772;29;20118;-49
2023/12/03 05:01:17;;;;;;;9.00;5.78;;;3.40;96.10;;;;;;4968802;29;20459;-50
2023/12/03 05:03:43;;;;;;;8.68;6.00;;;3.40;96.10;;;;;;4983365;28;20032;-50
2023/12/03 05:06:09;;;;;;;7.75;5.90;;;3.40;96.00;;;;;;4968294;28;20034;-50
2023/12/03 05:08:34;;;;;;;9.38;6.57;;;3.40;96.00;;;;;;4968296;29;20463;-50
2023/12/03 05:11:04;;;;;;;6.97;6.05;;;3.40;95.90;;;;;;4968451;28;20019;-50
2023/12/03 05:13:30;;;;;;;7.32;6.40;;;3.30;95.90;;;;;;4966907;28;20024;-50
2023/12/03 05:15:56;;;;;;;7.35;6.10;;;3.30;95.90;;;;;;4968354;28;20047;-50
2023/12/03 05:18:22;;;;;;;9.70;5.60;;;3.30;95.90;;;;;;4966944;29;20031;-50
2023/12/03 05:20:48;;;;;;;9.27;6.60;;;3.30;95.80;;;;;;4983168;28;20050;-50
2023/12/03 05:23:14;;;;;;;7.18;5.53;;;3.30;95.80;;;;;;4982963;28;20384;-50
2023/12/03 05:25:39;;;;;;;6.82;6.13;;;3.30;95.80;;;;;;4968114;28;20043;-50
2023/12/03 05:28:05;;;;;;;7.55;5.90;;;3.30;95.80;;;;;;4983096;28;20027;-50
2023/12/03 05:30:31;;;;;;;6.88;6.10;;;3.20;95.70;;;;;;4968181;28;20087;-50
2023/12/03 05:32:56;;;;;;;6.53;5.55;;;3.20;95.80;;;;;;4982886;28;20051;-50
2023/12/03 05:35:22;;;;;;;7.70;5.93;;;3.20;95.70;;;;;;4982710;28;20381;-50
2023/12/03 05:37:48;;;;;;;9.63;6.80;;;3.20;95.70;;;;;;4967873;28;20098;-49
2023/12/03 05:40:13;;;;;;;6.53;5.82;;;3.20;95.70;;;;;;4968145;28;20035;-49
2023/12/03 05:42:39;;;;;;;7.57;5.78;;;3.20;95.70;;;;;;4982781;28;20035;-50
2023/12/03 05:45:05;;;;;;;7.70;6.20;;;3.20;95.60;;;;;;4967894;28;20214;-50
2023/12/03 05:47:31;;;;;;;7.68;6.13;;;3.20;95.60;;;;;;4967824;28;20032;-50
2023/12/03 05:50:00;;;;;;;7.72;6.43;;;3.20;95.60;;;;;;4967869;29;20034;-50
2023/12/03 05:52:26;;;;;;;6.55;5.85;;;3.20;95.60;;;;;;4982711;28;20058;-50
2023/12/03 05:54:52;;;;;;;8.32;5.90;;;3.20;95.50;;;;;;4982588;28;20399;-50
2023/12/03 05:57:17;;;;;;;6.90;5.85;;;3.20;95.50;;;;;;4966600;29;20092;-50
2023/12/03 05:59:43;;;;;;;7.47;5.72;;;3.10;95.50;;;;;;4967361;28;20027;-50
2023/12/03 06:02:08;;;;;;;8.85;6.47;;;3.10;95.50;;;;;;4971873;29;20047;-50
2023/12/03 06:04:34;;;;;;;8.55;6.18;;;3.10;95.50;;;;;;4970514;29;20031;-50
2023/12/03 06:06:59;;;;;;;7.65;5.90;;;3.10;95.40;;;;;;4970496;29;20031;-50
2023/12/03 06:09:25;;;;;;;8.45;5.60;;;3.10;95.40;;;;;;4970451;29;20027;-50
2023/12/03 06:11:51;;;;;;;7.57;6.07;;;3.10;95.40;;;;;;4971743;29;20031;-50
2023/12/03 06:14:16;;;;;;;7.22;5.65;;;3.10;95.40;;;;;;4970387;29;20027;-50
2023/12/03 06:16:42;;;;;;;8.20;5.63;;;3.10;95.50;;;;;;4970364;29;20028;-50
2023/12/03 06:19:08;;;;;;;8.38;6.43;;;3.00;95.50;;;;;;4971443;28;20055;-50
2023/12/03 06:21:33;;;;;;;8.02;6.13;;;3.00;95.50;;;;;;4954424;29;20035;-50
2023/12/03 06:23:59;;;;;;;7.22;6.15;;;3.10;95.50;;;;;;4971253;29;20051;-50
2023/12/03 06:26:25;;;;;;;8.13;6.28;;;3.10;95.50;;;;;;4971421;28;20369;-50
2023/12/03 06:28:50;;;;;;;6.60;5.90;;;3.10;95.40;;;;;;4971267;29;20035;-50
2023/12/03 06:31:16;;;;;;;7.32;6.15;;;3.00;95.40;;;;;;4970241;28;20028;-50
2023/12/03 06:33:41;;;;;;;6.82;5.72;;;3.00;95.40;;;;;;4969979;29;20035;-50
2023/12/03 06:36:08;;;;;;;7.10;5.63;;;3.00;95.40;;;;;;4969966;29;20069;-50
2023/12/03 06:38:33;;;;;;;8.02;5.95;;;3.10;95.30;;;;;;4970923;28;20099;-50
2023/12/03 06:40:59;;;;;;;8.13;5.50;;;3.00;95.30;;;;;;4971177;29;20058;-49
2023/12/03 06:43:24;;;;;;;6.43;5.82;;;3.00;95.30;;;;;;4971111;29;20083;-49
2023/12/03 06:45:50;;;;;;;7.43;6.03;;;3.00;95.20;;;;;;4969898;29;20498;-50
2023/12/03 06:48:16;;;;;;;7.35;6.05;;;3.00;95.20;;;;;;4969699;29;20027;-50
2023/12/03 06:50:41;;;;;;;7.03;5.45;;;3.00;95.20;;;;;;4969744;28;20077;-50
2023/12/03 06:53:07;;;;;;;6.45;5.38;;;3.00;95.20;;;;;;4970913;29;20086;-50
2023/12/03 06:55:32;;;;;;;7.22;5.65;;;3.00;95.20;;;;;;4969464;29;20035;-50
2023/12/03 06:57:58;;;;;;;8.25;5.80;;;3.00;95.10;;;;;;4969679;29;20031;-50
2023/12/03 07:00:24;;;;;;;6.93;5.75;;;3.00;95.10;;;;;;4970440;28;20055;-50
2023/12/03 07:02:50;;;;;;;6.30;5.68;;;2.90;95.10;;;;;;4953354;29;20031;-50
2023/12/03 07:05:17;;;;;;;7.40;5.38;;;2.90;95.00;;;;;;4969156;29;20045;-50
2023/12/03 07:07:43;;;;;;;7.68;6.22;;;2.90;95.00;;;;;;4969477;28;20364;-50
2023/12/03 07:10:09;;;;;;;8.55;5.60;;;2.90;95.00;;;;;;4953263;29;20027;-50
2023/12/03 07:12:34;;;;;;;6.43;5.70;;;2.90;95.00;;;;;;4969539;28;20031;-49
2023/12/03 07:15:00;;;;;;;6.60;5.43;;;2.90;95.00;;;;;;4970491;29;20031;-50
2023/12/03 07:17:25;;;;;;;6.95;5.55;;;2.90;95.00;;;;;;4969253;29;20031;-50
2023/12/03 07:19:51;;;;;;;7.43;5.70;;;2.90;95.00;;;;;;4969283;29;20495;-50
2023/12/03 07:22:17;;;;;;;6.75;5.80;;;2.90;95.00;;;;;;4970021;29;20039;-50
2023/12/03 07:24:43;;;;;;;6.65;5.90;;;2.90;95.00;;;;;;4969026;29;20031;-50
2023/12/03 07:27:08;;;;;;;8.07;5.90;;;2.80;94.90;;;;;;4969002;29;20050;-50
2023/12/03 07:29:34;;;;;;;6.95;5.38;;;2.90;95.00;;;;;;4968915;29;20051;-50
2023/12/03 07:32:00;;;;;;;6.45;5.40;;;2.90;95.00;;;;;;4969111;29;20373;-50
2023/12/03 07:34:26;;;;;;;8.70;5.95;;;2.80;95.00;;;;;;4968833;28;20180;-50
2023/12/03 07:36:52;;;;;;;6.30;5.25;;;2.80;94.90;;;;;;4952730;29;20055;-50
2023/12/03 07:39:18;;;;;;;7.28;5.82;;;2.90;94.90;;;;;;4968988;29;20095;-50
2023/12/03 07:41:50;;;;;;;6.55;5.13;;;2.80;94.90;;;;;;4968921;29;20036;-49
2023/12/03 07:44:15;;;;;;;7.75;6.05;;;2.80;94.80;;;;;;4968763;28;20102;-50
2023/12/03 07:46:41;;;;;;;6.45;5.35;;;2.90;94.90;;;;;;4952593;29;20027;-50
2023/12/03 07:49:06;;;;;;;6.93;5.57;;;2.80;94.80;;;;;;4968614;29;20031;-50
2023/12/03 07:51:32;;;;;;;8.05;6.13;;;2.80;94.80;;;;;;4969953;29;20043;-50
2023/12/03 07:53:57;;;;;;;7.25;5.88;;;2.80;94.80;;;;;;4968603;29;20035;-50
2023/12/03 07:56:23;;;;;;;6.90;5.63;;;2.80;94.80;;;;;;4968518;29;20086;-50
2023/12/03 07:58:48;;;;;;;6.18;5.22;;;2.80;94.80;;;;;;4968547;29;20035;-50
2023/12/03 08:01:14;;;;;;;6.90;5.80;;;2.80;94.80;;;;;;4968169;29;20038;-50
2023/12/03 08:03:40;;;;;;;7.10;6.38;;;2.80;94.80;;;;;;4969367;29;20058;-50
2023/12/03 08:06:06;;;;;;;7.32;5.82;;;2.80;94.80;;;;;;4969687;29;20368;-50
2023/12/03 08:08:31;;;;;;;7.82;6.15;;;2.80;94.80;;;;;;4969444;29;20033;-50
2023/12/03 08:10:57;;;;;;;6.35;5.30;;;2.80;94.80;;;;;;4969337;29;20078;-50
2023/12/03 08:13:22;;;;;;;7.50;5.72;;;2.80;94.80;;;;;;4968017;29;20039;-51
2023/12/03 08:15:48;;;;;;;7.30;5.95;;;2.80;94.80;;;;;;4968179;28;20086;-50
2023/12/03 08:18:14;;;;;;;6.80;6.05;;;2.80;94.80;;;;;;4968986;29;20034;-50
2023/12/03 08:20:39;;;;;;;7.53;5.25;;;2.80;94.70;;;;;;4969152;29;20032;-50
2023/12/03 08:23:05;;;;;;;7.90;5.90;;;2.80;94.70;;;;;;4968986;28;20209;-50
2023/12/03 08:25:30;;;;;;;6.22;5.45;;;2.80;94.70;;;;;;4967875;29;20031;-50
2023/12/03 08:27:56;;;;;;;7.25;5.80;;;2.70;94.60;;;;;;4967905;29;20030;-50
2023/12/03 08:30:22;;;;;;;6.47;5.45;;;2.80;94.70;;;;;;4968025;29;20035;-50
2023/12/03 08:32:48;;;;;;;7.93;5.72;;;2.80;94.70;;;;;;4968742;28;20032;-51
2023/12/03 08:35:14;;;;;;;6.40;5.80;;;2.80;94.60;;;;;;4967217;29;20031;-50
2023/12/03 08:37:39;;;;;;;7.32;5.82;;;2.80;94.60;;;;;;4967599;29;20119;-50
2023/12/03 08:40:06;;;;;;;8.13;6.03;;;2.80;94.70;;;;;;4967184;29;20042;-50
2023/12/03 08:42:32;;;;;;;7.13;5.85;;;2.80;94.70;;;;;;4983180;28;20039;-50
2023/12/03 08:44:58;;;;;;;7.40;5.88;;;2.80;94.60;;;;;;4967937;28;20038;-50
2023/12/03 08:47:23;;;;;;;7.00;5.90;;;2.80;94.60;;;;;;4968709;28;20031;-50
2023/12/03 08:49:49;;;;;;;6.45;5.72;;;2.80;94.60;;;;;;4968595;28;20039;-50
2023/12/03 08:52:15;;;;;;;7.75;5.82;;;2.80;94.60;;;;;;4980181;28;20027;-50
2023/12/03 08:54:40;;;;;;;7.18;6.10;;;2.80;94.60;;;;;;4979538;28;20064;-50
2023/12/03 08:57:07;;;;;;;10.50;6.18;;;2.80;94.60;;;;;;4980801;28;20036;-50
2023/12/03 08:59:32;;;;;;;7.65;6.20;;;2.80;94.60;;;;;;4953858;29;20476;-50
2023/12/03 09:01:58;;;;;;;7.72;6.15;;;2.80;94.50;;;;;;4968631;28;20028;-50
2023/12/03 09:04:24;;;;;;;6.93;6.13;;;2.80;94.50;;;;;;4964786;29;20032;-50
2023/12/03 09:06:49;;;;;;;7.93;6.00;;;2.80;94.50;;;;;;4967960;29;20032;-50
2023/12/03 09:09:15;;;;;;;8.68;6.38;;;2.80;94.50;;;;;;4982552;28;20027;-50
2023/12/03 09:11:42;;;;;;;7.18;5.90;;;2.80;94.50;;;;;;4982958;28;20515;-50
2023/12/03 09:14:08;;;;;;;7.30;6.47;;;2.80;94.40;;;;;;4982715;28;20074;-50
2023/12/03 09:16:33;;;;;;;7.65;5.75;;;2.80;94.50;;;;;;4982682;28;20035;-50
2023/12/03 09:18:59;;;;;;;8.02;6.55;;;2.80;94.40;;;;;;4982909;28;20091;-50
2023/12/03 09:21:24;;;;;;;9.68;6.15;;;2.80;94.40;;;;;;4983043;28;20491;-50
2023/12/03 09:23:50;;;;;;;10.10;6.72;;;2.80;94.50;;;;;;4982365;28;20042;-50
2023/12/03 09:26:16;;;;;;;10.23;7.18;;;2.80;94.50;;;;;;4982497;28;20027;-50
2023/12/03 09:28:41;;;;;;;13.75;6.78;;;2.80;94.50;;;;;;4982432;28;20096;-50
2023/12/03 09:31:07;;;;;;;10.50;7.25;;;2.70;94.50;;;;;;4982229;28;20090;-50
2023/12/03 09:33:33;;;;;;;18.02;7.97;;;2.70;94.50;;;;;;4974903;28;20028;-50
2023/12/03 09:35:58;;;;;;;21.60;7.57;;;2.80;94.60;;;;;;4981095;28;20122;-50
2023/12/03 09:38:24;;;;;;;28.70;7.88;;;2.80;94.70;;;;;;4966831;28;20031;-50
2023/12/03 09:40:52;;;;;;;32.42;8.90;;;2.70;94.60;;;;;;4967238;29;20031;-50
2023/12/03 09:43:18;;;;;;;36.47;8.02;;;2.80;94.70;;;;;;4981836;28;20415;-50
2023/12/03 09:45:45;;;;;;;25.13;8.00;;;2.80;94.80;;;;;;4981422;28;20035;-50
2023/12/03 09:48:11;;;;;;;19.83;8.73;;;2.80;94.90;;;;;;4982711;28;20055;-50
2023/12/03 09:50:36;;;;;;;20.48;7.68;;;2.80;94.90;;;;;;4982782;28;20098;-50
2023/12/03 09:53:02;;;;;;;29.52;8.45;;;2.80;94.80;;;;;;4982864;28;20019;-50
2023/12/03 09:55:28;;;;;;;25.00;8.65;;;2.80;94.80;;;;;;4982051;28;20062;-50
2023/12/03 09:57:54;;;;;;;30.08;8.27;;;2.90;94.80;;;;;;4982152;28;20591;-49
2023/12/03 10:00:21;;;;;;;24.10;9.85;;;2.90;94.80;;;;;;4967311;28;20114;-50
2023/12/03 10:02:46;;;;;;;23.08;8.10;;;2.90;94.80;;;;;;4966149;29;20046;-50
2023/12/03 10:05:12;;;;;;;43.17;10.38;;;2.90;94.80;;;;;;4982223;28;20036;-50
2023/12/03 10:07:37;;;;;;;31.33;9.52;;;2.90;94.70;;;;;;4966769;28;20039;-48
2023/12/03 10:10:04;;;;;;;36.50;9.50;;;2.90;94.80;;;;;;4981431;28;20027;-50
2023/12/03 10:12:38;;;;;;;32.33;10.38;;;2.90;94.80;;;;;;4965639;29;20244;-50
2023/12/03 10:15:04;;;;;;;37.30;9.60;;;2.90;94.90;;;;;;4981865;28;20027;-50
2023/12/03 10:17:30;;;;;;;50.28;11.20;;;2.90;94.90;;;;;;4966988;28;20039;-50
2023/12/03 10:20:36;;;;;;;38.30;11.32;;;2.90;94.90;;;;;;4982201;28;20035;-51
2023/12/03 10:23:02;;;;;;;43.90;11.02;;;2.90;95.00;;;;;;4976240;28;20035;-50
2023/12/03 10:25:31;;;;;;;52.60;10.90;;;2.90;95.10;;;;;;4980832;28;20102;-50
2023/12/03 10:27:58;;;;;;;59.72;11.15;;;2.90;95.20;;;;;;4963697;28;20028;-50
2023/12/03 10:30:25;;;;;;;35.28;11.77;;;3.00;95.20;;;;;;4965910;29;20038;-50
2023/12/03 10:32:50;;;;;;;46.17;12.02;;;3.00;95.30;;;;;;4965954;29;20050;-50
2023/12/03 10:35:17;;;;;;;50.03;11.45;;;3.00;95.20;;;;;;4948961;29;20036;-50
2023/12/03 10:37:43;;;;;;;102.82;14.88;;;3.00;95.20;;;;;;4964987;28;20098;-50
2023/12/03 10:40:10;;;;;;;64.07;13.52;;;3.00;95.30;;;;;;4979775;28;20039;-50
2023/12/03 10:42:39;;;;;;;125.97;17.50;;;3.00;95.40;;;;;;4979707;28;20031;-50
2023/12/03 10:45:14;;;;;;;89.00;15.27;;;3.00;95.50;;;;;;4960575;28;20094;-50
2023/12/03 10:47:40;;;;;;;;;;;3.10;95.60;;;;;;4968747;29;20123;-51
2023/12/03 10:50:07;;;;;;;91.47;13.00;;;3.00;95.80;;;;;;4969287;28;19914;-50
2023/12/03 10:52:33;;;;;;;71.95;14.60;;;3.00;95.40;;;;;;4970782;28;20075;-50
2023/12/03 10:54:59;;;;;;;68.20;13.98;;;3.10;95.40;;;;;;4982008;28;20039;-50
2023/12/03 10:57:37;;;;;;;80.88;14.50;;;3.10;95.50;;;;;;4984802;28;20150;-50
2023/12/03 11:00:10;;;;;;;108.65;15.60;;;3.10;95.60;;;;;;4984677;28;20032;-50
2023/12/03 11:02:45;;;;;;;70.65;17.05;;;3.10;95.70;;;;;;4973715;28;20063;-50
2023/12/03 11:05:17;;;;;;;92.70;16.00;;;3.20;95.90;;;;;;4969232;28;20035;-51
2023/12/03 11:07:43;;;;;;;113.90;16.02;;;3.20;96.00;;;;;;4975315;28;20043;-50
2023/12/03 11:10:09;;;;;;;100.70;17.00;;;3.20;96.20;;;;;;4966503;28;20554;-50
2023/12/03 11:12:34;;;;;;;113.65;18.27;;;3.20;96.20;;;;;;4983270;28;20468;-50
2023/12/03 11:15:00;;;;;;;113.10;18.13;;;3.20;96.40;;;;;;4972734;28;20086;-50
2023/12/03 11:17:28;;;;;;;106.80;16.42;;;3.30;96.30;;;;;;4953265;29;20038;-50
2023/12/03 11:19:55;;;;;;;130.40;18.27;;;3.30;96.40;;;;;;4991001;28;20023;-50
2023/12/03 11:22:39;;;;;;;113.97;16.17;;;3.30;96.50;;;;;;4957748;28;20365;-50
2023/12/03 11:25:14;;;;;;;93.93;18.17;;;3.30;96.40;;;;;;4974368;28;20034;-50
2023/12/03 11:27:41;;;;;;;116.03;19.05;;;3.30;96.30;;;;;;4992809;28;20042;-50
2023/12/03 11:30:07;;;;;;;107.78;18.20;;;3.10;96.30;;;;;;4997069;28;20023;-50
2023/12/03 11:32:33;;;;;;;143.25;18.95;;;3.30;96.40;;;;;;4990628;28;20038;-50
2023/12/03 11:35:15;;;;;;;95.07;16.92;;;3.30;96.40;;;;;;4988589;28;20079;-50
2023/12/03 11:37:42;;;;;;;109.63;18.55;;;3.30;96.20;;;;;;4983492;28;20042;-50
2023/12/03 11:40:10;;;;;;;95.35;17.02;;;3.30;96.30;;;;;;4966887;29;20029;-50
2023/12/03 11:42:45;;;;;;;90.65;17.95;;;3.40;96.40;;;;;;4970710;28;20039;-50
2023/12/03 11:45:25;;;;;;;;;;;3.40;96.40;;;;;;4997125;28;20051;-50
2023/12/03 11:48:06;;;;;;;95.82;17.15;;;3.40;96.40;;;;;;4968579;28;19914;-50
2023/12/03 11:50:42;;;;;;;124.85;19.00;;;3.40;96.70;;;;;;4969153;28;20663;-50
2023/12/03 11:53:09;;;;;;;112.53;20.60;;;3.40;96.50;;;;;;4980807;28;20043;-50
2023/12/03 11:55:36;;;;;;;127.72;19.65;;;3.40;96.70;;;;;;4964208;29;20031;-50
2023/12/03 11:58:03;;;;;;;111.28;19.92;;;3.40;96.80;;;;;;4976332;28;20543;-50
2023/12/03 12:00:28;;;;;;;120.93;20.90;;;3.40;96.80;;;;;;4980690;28;20114;-49
2023/12/03 12:02:54;;;;;;;125.20;19.30;;;3.40;96.80;;;;;;4981537;28;20106;-50
2023/12/03 12:05:19;;;;;;;109.40;18.52;;;3.50;96.80;;;;;;4981083;28;20042;-50
2023/12/03 12:08:04;;;;;;;95.35;18.60;;;3.50;96.90;;;;;;4964597;28;20035;-50
2023/12/03 12:10:33;;;;;;;106.65;19.08;;;3.50;96.90;;;;;;4979618;28;20095;-50
2023/12/03 12:12:59;;;;;;;138.13;21.88;;;3.50;96.90;;;;;;4978585;28;20046;-50
2023/12/03 12:15:25;;;;;;;105.07;18.98;;;3.60;96.90;;;;;;4984770;28;20043;-50
2023/12/03 12:17:51;;;;;;;125.35;21.38;;;3.50;96.90;;;;;;4968084;28;20042;-50
2023/12/03 12:20:25;;;;;;;121.38;19.23;;;3.50;96.90;;;;;;4965699;28;20074;-50
2023/12/03 12:22:51;;;;;;;104.75;20.33;;;3.60;97.00;;;;;;4985762;28;20034;-50
2023/12/03 12:25:17;;;;;;;128.93;19.48;;;3.60;96.90;;;;;;4983047;28;20027;-50
2023/12/03 12:27:43;;;;;;;121.50;20.17;;;3.60;97.00;;;;;;4979009;28;20050;-50
2023/12/03 12:30:12;;;;;;;111.45;17.23;;;3.60;97.00;;;;;;4964971;28;20027;-50
2023/12/03 12:32:38;;;;;;;115.13;19.50;;;3.60;97.10;;;;;;4983370;28;20077;-49
2023/12/03 12:35:04;;;;;;;131.45;20.35;;;3.60;97.10;;;;;;4984610;28;20033;-50
2023/12/03 12:37:33;;;;;;;85.13;18.75;;;3.70;97.10;;;;;;4962199;28;20050;-50
2023/12/03 12:40:07;;;;;;;89.25;18.02;;;3.60;97.10;;;;;;4969722;28;20492;-50
2023/12/03 12:42:32;;;;;;;113.43;18.98;;;3.70;97.10;;;;;;4962074;29;20032;-50
2023/12/03 12:44:58;;;;;;;87.00;18.60;;;3.70;97.00;;;;;;4965354;29;20095;-50